sensor_id;sensor_type;location;lat;lon;timestamp;pressure;altitude;pressure_sealevel;temperature;humidity
7524;BME280;3803;51.666;7.630;2023-05-25T00:00:17;101924.44;;;9.09;82.87
7524;BME280;3803;51.666;7.630;2023-05-25T00:00:38;101921.75;;;9.08;83.31
7524;BME280;3803;51.666;7.630;2023-05-25T00:00:59;101918.97;;;9.04;83.25
7524;BME280;3803;51.666;7.630;2023-05-25T00:01:20;101918.91;;;9.03;83.25
7524;BME280;3803;51.666;7.630;2023-05-25T00:01:41;101934.84;;;9.09;83.29
7524;BME280;3803;51.666;7.630;2023-05-25T00:02:03;101919.88;;;9.05;83.37
7524;BME280;3803;51.666;7.630;2023-05-25T00:02:24;101922.41;;;9.03;82.99
7524;BME280;3803;51.666;7.630;2023-05-25T00:02:46;101918.75;;;9.00;83.25
7524;BME280;3803;51.666;7.630;2023-05-25T00:03:07;101910.69;;;8.95;82.82
7524;BME280;3803;51.666;7.630;2023-05-25T00:03:29;101933.63;;;9.02;83.39
7524;BME280;3803;51.666;7.630;2023-05-25T00:03:51;101921.91;;;8.94;83.20
7524;BME280;3803;51.666;7.630;2023-05-25T00:04:14;101924.53;;;8.94;83.08
7524;BME280;3803;51.666;7.630;2023-05-25T00:04:36;101920.03;;;8.91;82.91
7524;BME280;3803;51.666;7.630;2023-05-25T00:04:57;101915.41;;;8.86;82.95
7524;BME280;3803;51.666;7.630;2023-05-25T00:05:20;101912.56;;;8.81;83.09
7524;BME280;3803;51.666;7.630;2023-05-25T00:05:41;101915.97;;;8.80;83.19
7524;BME280;3803;51.666;7.630;2023-05-25T00:06:01;101915.88;;;8.79;82.93
7524;BME280;3803;51.666;7.630;2023-05-25T00:06:22;101930.13;;;8.85;83.14
7524;BME280;3803;51.666;7.630;2023-05-25T00:06:45;101916.72;;;8.77;83.23
7524;BME280;3803;51.666;7.630;2023-05-25T00:07:06;101925.56;;;8.81;83.19
7524;BME280;3803;51.666;7.630;2023-05-25T00:07:27;101918.34;;;8.75;83.39
7524;BME280;3803;51.666;7.630;2023-05-25T00:07:48;101927.13;;;8.77;83.47
7524;BME280;3803;51.666;7.630;2023-05-25T00:08:08;101911.16;;;8.71;83.25
7524;BME280;3803;51.666;7.630;2023-05-25T00:08:29;101919.78;;;8.70;83.53
7524;BME280;3803;51.666;7.630;2023-05-25T00:08:50;101916.28;;;8.70;83.29
7524;BME280;3803;51.666;7.630;2023-05-25T00:09:14;101932.13;;;8.74;83.43
7524;BME280;3803;51.666;7.630;2023-05-25T00:09:35;101917.66;;;8.63;83.23
7524;BME280;3803;51.666;7.630;2023-05-25T00:09:56;101933.78;;;8.72;83.55
7524;BME280;3803;51.666;7.630;2023-05-25T00:10:17;101919.44;;;8.64;83.65
7524;BME280;3803;51.666;7.630;2023-05-25T00:10:37;101923.69;;;8.62;83.31
7524;BME280;3803;51.666;7.630;2023-05-25T00:10:58;101920.94;;;8.60;83.42
7524;BME280;3803;51.666;7.630;2023-05-25T00:11:19;101937.09;;;8.70;83.28
7524;BME280;3803;51.666;7.630;2023-05-25T00:11:43;101929.47;;;8.58;83.29
7524;BME280;3803;51.666;7.630;2023-05-25T00:12:05;101922.75;;;8.61;83.53
7524;BME280;3803;51.666;7.630;2023-05-25T00:12:26;101925.34;;;8.61;83.73
7524;BME280;3803;51.666;7.630;2023-05-25T00:12:47;101938.47;;;8.63;83.52
7524;BME280;3803;51.666;7.630;2023-05-25T00:13:08;101917.47;;;8.60;83.47
7524;BME280;3803;51.666;7.630;2023-05-25T00:13:29;101923.47;;;8.59;83.45
7524;BME280;3803;51.666;7.630;2023-05-25T00:13:50;101915.41;;;8.54;83.65
7524;BME280;3803;51.666;7.630;2023-05-25T00:14:12;101921.66;;;8.58;83.26
7524;BME280;3803;51.666;7.630;2023-05-25T00:14:32;101918.19;;;8.57;83.70
7524;BME280;3803;51.666;7.630;2023-05-25T00:14:53;101910.16;;;8.53;83.29
7524;BME280;3803;51.666;7.630;2023-05-25T00:15:14;101919.06;;;8.58;83.42
7524;BME280;3803;51.666;7.630;2023-05-25T00:15:35;101921.88;;;8.61;83.74
7524;BME280;3803;51.666;7.630;2023-05-25T00:15:56;101929.03;;;8.65;83.42
7524;BME280;3803;51.666;7.630;2023-05-25T00:16:17;101919.88;;;8.57;83.31
7524;BME280;3803;51.666;7.630;2023-05-25T00:16:38;101920.13;;;8.61;83.43
7524;BME280;3803;51.666;7.630;2023-05-25T00:16:59;101915.50;;;8.56;83.83
7524;BME280;3803;51.666;7.630;2023-05-25T00:17:23;101926.16;;;8.60;83.31
7524;BME280;3803;51.666;7.630;2023-05-25T00:17:43;101920.78;;;8.57;83.37
7524;BME280;3803;51.666;7.630;2023-05-25T00:18:05;101914.53;;;8.54;83.19
7524;BME280;3803;51.666;7.630;2023-05-25T00:18:26;101915.50;;;8.56;83.54
7524;BME280;3803;51.666;7.630;2023-05-25T00:18:46;101920.34;;;8.49;83.36
7524;BME280;3803;51.666;7.630;2023-05-25T00:19:08;101925.09;;;8.57;83.85
7524;BME280;3803;51.666;7.630;2023-05-25T00:19:29;101927.63;;;8.55;83.66
7524;BME280;3803;51.666;7.630;2023-05-25T00:19:51;101921.53;;;8.55;83.39
7524;BME280;3803;51.666;7.630;2023-05-25T00:20:12;101913.38;;;8.48;83.43
7524;BME280;3803;51.666;7.630;2023-05-25T00:20:34;101912.50;;;8.48;83.43
7524;BME280;3803;51.666;7.630;2023-05-25T00:20:55;101915.81;;;8.45;83.26
7524;BME280;3803;51.666;7.630;2023-05-25T00:21:15;101914.84;;;8.43;83.41
7524;BME280;3803;51.666;7.630;2023-05-25T00:21:36;101914.66;;;8.40;83.36
7524;BME280;3803;51.666;7.630;2023-05-25T00:22:00;101936.97;;;8.52;83.22
7524;BME280;3803;51.666;7.630;2023-05-25T00:22:24;101921.66;;;8.41;83.32
7524;BME280;3803;51.666;7.630;2023-05-25T00:22:48;101913.69;;;8.38;83.46
7524;BME280;3803;51.666;7.630;2023-05-25T00:23:09;101934.03;;;8.45;83.29
7524;BME280;3803;51.666;7.630;2023-05-25T00:23:30;101908.13;;;8.32;83.23
7524;BME280;3803;51.666;7.630;2023-05-25T00:23:50;101914.31;;;8.34;83.65
7524;BME280;3803;51.666;7.630;2023-05-25T00:24:11;101920.41;;;8.34;83.34
7524;BME280;3803;51.666;7.630;2023-05-25T00:24:32;101917.72;;;8.33;83.08
7524;BME280;3803;51.666;7.630;2023-05-25T00:24:53;101924.72;;;8.34;83.37
7524;BME280;3803;51.666;7.630;2023-05-25T00:25:13;101922.03;;;8.32;83.31
7524;BME280;3803;51.666;7.630;2023-05-25T00:25:34;101914.00;;;8.28;83.37
7524;BME280;3803;51.666;7.630;2023-05-25T00:25:55;101904.22;;;8.23;83.35
7524;BME280;3803;51.666;7.630;2023-05-25T00:26:15;101929.09;;;8.35;83.47
7524;BME280;3803;51.666;7.630;2023-05-25T00:26:36;101915.78;;;8.29;83.47
7524;BME280;3803;51.666;7.630;2023-05-25T00:26:57;101908.44;;;8.21;83.11
7524;BME280;3803;51.666;7.630;2023-05-25T00:27:18;101912.97;;;8.26;83.46
7524;BME280;3803;51.666;7.630;2023-05-25T00:27:39;101919.91;;;8.25;83.26
7524;BME280;3803;51.666;7.630;2023-05-25T00:27:59;101915.59;;;8.26;82.97
7524;BME280;3803;51.666;7.630;2023-05-25T00:28:24;101919.00;;;8.25;83.71
7524;BME280;3803;51.666;7.630;2023-05-25T00:28:44;101919.97;;;8.27;83.46
7524;BME280;3803;51.666;7.630;2023-05-25T00:29:05;101927.06;;;8.29;83.31
7524;BME280;3803;51.666;7.630;2023-05-25T00:29:26;101918.84;;;8.21;83.06
7524;BME280;3803;51.666;7.630;2023-05-25T00:29:47;101917.38;;;8.27;83.36
7524;BME280;3803;51.666;7.630;2023-05-25T00:30:09;101920.78;;;8.26;83.46
7524;BME280;3803;51.666;7.630;2023-05-25T00:30:30;101927.97;;;8.30;83.44
7524;BME280;3803;51.666;7.630;2023-05-25T00:30:53;101926.00;;;8.26;83.47
7524;BME280;3803;51.666;7.630;2023-05-25T00:31:14;101921.50;;;8.23;83.36
7524;BME280;3803;51.666;7.630;2023-05-25T00:31:34;101935.94;;;8.33;83.45
7524;BME280;3803;51.666;7.630;2023-05-25T00:31:56;101920.78;;;8.26;83.70
7524;BME280;3803;51.666;7.630;2023-05-25T00:32:18;101905.59;;;8.17;83.53
7524;BME280;3803;51.666;7.630;2023-05-25T00:32:40;101923.31;;;8.24;83.54
7524;BME280;3803;51.666;7.630;2023-05-25T00:33:01;101915.44;;;8.22;83.64
7524;BME280;3803;51.666;7.630;2023-05-25T00:33:22;101928.84;;;8.30;83.64
7524;BME280;3803;51.666;7.630;2023-05-25T00:33:43;101910.84;;;8.18;83.57
7524;BME280;3803;51.666;7.630;2023-05-25T00:34:05;101918.50;;;8.15;83.79
7524;BME280;3803;51.666;7.630;2023-05-25T00:34:25;101919.03;;;8.09;83.52
7524;BME280;3803;51.666;7.630;2023-05-25T00:34:46;101918.13;;;8.09;83.99
7524;BME280;3803;51.666;7.630;2023-05-25T00:35:07;101932.31;;;8.14;84.27
7524;BME280;3803;51.666;7.630;2023-05-25T00:35:28;101919.75;;;8.07;84.19
7524;BME280;3803;51.666;7.630;2023-05-25T00:35:49;101930.53;;;8.13;84.38
7524;BME280;3803;51.666;7.630;2023-05-25T00:36:10;101920.66;;;8.07;84.03
7524;BME280;3803;51.666;7.630;2023-05-25T00:36:31;101925.88;;;8.07;84.23
7524;BME280;3803;51.666;7.630;2023-05-25T00:36:52;101917.97;;;8.06;84.53
7524;BME280;3803;51.666;7.630;2023-05-25T00:37:13;101912.41;;;8.00;84.44
7524;BME280;3803;51.666;7.630;2023-05-25T00:37:34;101919.41;;;8.01;84.51
7524;BME280;3803;51.666;7.630;2023-05-25T00:37:55;101914.84;;;7.97;84.09
7524;BME280;3803;51.666;7.630;2023-05-25T00:38:16;101931.78;;;8.05;84.70
7524;BME280;3803;51.666;7.630;2023-05-25T00:38:38;101911.34;;;7.96;84.65
7524;BME280;3803;51.666;7.630;2023-05-25T00:38:59;101929.19;;;8.05;84.40
7524;BME280;3803;51.666;7.630;2023-05-25T00:39:20;101926.38;;;8.02;84.30
7524;BME280;3803;51.666;7.630;2023-05-25T00:39:41;101917.25;;;7.93;84.60
7524;BME280;3803;51.666;7.630;2023-05-25T00:40:02;101909.41;;;7.92;84.61
7524;BME280;3803;51.666;7.630;2023-05-25T00:40:24;101911.50;;;7.99;84.73
7524;BME280;3803;51.666;7.630;2023-05-25T00:40:45;101919.75;;;8.07;84.68
7524;BME280;3803;51.666;7.630;2023-05-25T00:41:05;101918.13;;;8.09;84.39
7524;BME280;3803;51.666;7.630;2023-05-25T00:41:27;101939.44;;;8.18;84.43
7524;BME280;3803;51.666;7.630;2023-05-25T00:41:48;101927.81;;;8.12;84.17
7524;BME280;3803;51.666;7.630;2023-05-25T00:42:09;101914.47;;;8.05;83.98
7524;BME280;3803;51.666;7.630;2023-05-25T00:42:30;101919.03;;;8.09;84.06
7524;BME280;3803;51.666;7.630;2023-05-25T00:42:52;101921.81;;;8.13;84.03
7524;BME280;3803;51.666;7.630;2023-05-25T00:43:13;101912.78;;;8.06;83.81
7524;BME280;3803;51.666;7.630;2023-05-25T00:43:34;101930.16;;;8.07;84.14
7524;BME280;3803;51.666;7.630;2023-05-25T00:43:55;101938.56;;;8.03;84.44
7524;BME280;3803;51.666;7.630;2023-05-25T00:44:16;101923.38;;;7.94;84.38
7524;BME280;3803;51.666;7.630;2023-05-25T00:44:41;101916.13;;;7.88;84.05
7524;BME280;3803;51.666;7.630;2023-05-25T00:45:02;101928.66;;;7.95;84.59
7524;BME280;3803;51.666;7.630;2023-05-25T00:45:23;101917.81;;;7.88;84.76
7524;BME280;3803;51.666;7.630;2023-05-25T00:45:44;101940.84;;;7.97;84.73
7524;BME280;3803;51.666;7.630;2023-05-25T00:46:05;101932.78;;;7.92;84.85
7524;BME280;3803;51.666;7.630;2023-05-25T00:46:27;101918.34;;;7.82;84.71
7524;BME280;3803;51.666;7.630;2023-05-25T00:46:50;101932.78;;;7.92;85.07
7524;BME280;3803;51.666;7.630;2023-05-25T00:47:11;101939.69;;;7.91;84.85
7524;BME280;3803;51.666;7.630;2023-05-25T00:47:32;101928.75;;;7.82;84.88
7524;BME280;3803;51.666;7.630;2023-05-25T00:47:53;101917.28;;;7.78;85.15
7524;BME280;3803;51.666;7.630;2023-05-25T00:48:14;101916.22;;;7.75;84.85
7524;BME280;3803;51.666;7.630;2023-05-25T00:48:35;101919.78;;;7.77;84.85
7524;BME280;3803;51.666;7.630;2023-05-25T00:48:59;101927.94;;;7.83;84.85
7524;BME280;3803;51.666;7.630;2023-05-25T00:49:20;101934.06;;;7.84;84.71
7524;BME280;3803;51.666;7.630;2023-05-25T00:49:44;101906.38;;;7.69;84.98
7524;BME280;3803;51.666;7.630;2023-05-25T00:50:07;101916.00;;;7.72;84.85
7524;BME280;3803;51.666;7.630;2023-05-25T00:50:40;101926.78;;;7.78;85.02
7524;BME280;3803;51.666;7.630;2023-05-25T00:51:02;101915.41;;;7.76;85.07
7524;BME280;3803;51.666;7.630;2023-05-25T00:51:24;101932.50;;;7.87;84.62
7524;BME280;3803;51.666;7.630;2023-05-25T00:51:46;101929.72;;;7.84;84.57
7524;BME280;3803;51.666;7.630;2023-05-25T00:52:11;101940.50;;;7.90;84.64
7524;BME280;3803;51.666;7.630;2023-05-25T00:52:32;101921.78;;;7.81;84.54
7524;BME280;3803;51.666;7.630;2023-05-25T00:52:53;101913.78;;;7.78;84.39
7524;BME280;3803;51.666;7.630;2023-05-25T00:53:13;101932.50;;;7.87;84.63
7524;BME280;3803;51.666;7.630;2023-05-25T00:53:34;101932.44;;;7.86;84.41
7524;BME280;3803;51.666;7.630;2023-05-25T00:53:56;101935.19;;;7.89;84.62
7524;BME280;3803;51.666;7.630;2023-05-25T00:54:17;101936.97;;;7.90;84.65
7524;BME280;3803;51.666;7.630;2023-05-25T00:54:39;101916.56;;;7.81;84.60
7524;BME280;3803;51.666;7.630;2023-05-25T00:55:01;101921.78;;;7.81;84.21
7524;BME280;3803;51.666;7.630;2023-05-25T00:55:24;101921.94;;;7.84;84.34
7524;BME280;3803;51.666;7.630;2023-05-25T00:55:59;101913.78;;;7.78;84.29
7524;BME280;3803;51.666;7.630;2023-05-25T00:56:25;101920.16;;;7.83;84.47
7524;BME280;3803;51.666;7.630;2023-05-25T00:56:51;101929.13;;;7.88;84.60
7524;BME280;3803;51.666;7.630;2023-05-25T00:57:13;101907.59;;;7.76;84.25
7524;BME280;3803;51.666;7.630;2023-05-25T00:57:39;101914.59;;;7.77;84.60
7524;BME280;3803;51.666;7.630;2023-05-25T00:58:02;101922.66;;;7.81;84.30
7524;BME280;3803;51.666;7.630;2023-05-25T00:58:26;101921.06;;;7.84;84.08
7524;BME280;3803;51.666;7.630;2023-05-25T00:58:49;101918.16;;;7.79;84.82
7524;BME280;3803;51.666;7.630;2023-05-25T00:59:16;101920.84;;;7.80;84.48
7524;BME280;3803;51.666;7.630;2023-05-25T00:59:45;101921.78;;;7.81;84.39
7524;BME280;3803;51.666;7.630;2023-05-25T01:00:08;101920.75;;;7.79;84.65
7524;BME280;3803;51.666;7.630;2023-05-25T01:00:31;101916.22;;;7.75;84.41
7524;BME280;3803;51.666;7.630;2023-05-25T01:00:55;101930.53;;;7.83;84.66
7524;BME280;3803;51.666;7.630;2023-05-25T01:01:17;101918.00;;;7.76;84.67
7524;BME280;3803;51.666;7.630;2023-05-25T01:01:39;101916.22;;;7.75;84.78
7524;BME280;3803;51.666;7.630;2023-05-25T01:02:03;101921.78;;;7.81;84.63
7524;BME280;3803;51.666;7.630;2023-05-25T01:02:27;101915.41;;;7.76;84.86
7524;BME280;3803;51.666;7.630;2023-05-25T01:02:50;101923.56;;;7.82;84.86
7524;BME280;3803;51.666;7.630;2023-05-25T01:03:14;101907.59;;;7.76;84.65
7524;BME280;3803;51.666;7.630;2023-05-25T01:03:45;101914.78;;;7.80;84.56
7524;BME280;3803;51.666;7.630;2023-05-25T01:04:12;101910.19;;;7.76;84.37
7524;BME280;3803;51.666;7.630;2023-05-25T01:04:40;101924.63;;;7.86;84.67
7524;BME280;3803;51.666;7.630;2023-05-25T01:05:05;101921.78;;;7.81;84.94
7524;BME280;3803;51.666;7.630;2023-05-25T01:05:29;101916.22;;;7.75;84.34
7524;BME280;3803;51.666;7.630;2023-05-25T01:05:53;101918.16;;;7.79;84.66
7524;BME280;3803;51.666;7.630;2023-05-25T01:06:16;101911.72;;;7.72;84.49
7524;BME280;3803;51.666;7.630;2023-05-25T01:06:38;101923.34;;;7.79;84.34
7524;BME280;3803;51.666;7.630;2023-05-25T01:07:03;101906.38;;;7.69;84.85
7524;BME280;3803;51.666;7.630;2023-05-25T01:07:26;101908.97;;;7.69;84.33
7524;BME280;3803;51.666;7.630;2023-05-25T01:07:48;101906.25;;;7.67;84.46
7524;BME280;3803;51.666;7.630;2023-05-25T01:08:10;101915.22;;;7.73;84.51
7524;BME280;3803;51.666;7.630;2023-05-25T01:08:32;101917.63;;;7.70;85.02
7524;BME280;3803;51.666;7.630;2023-05-25T01:08:57;101912.28;;;7.66;84.14
7524;BME280;3803;51.666;7.630;2023-05-25T01:09:21;101919.41;;;7.71;84.72
7524;BME280;3803;51.666;7.630;2023-05-25T01:09:46;101920.34;;;7.71;84.51
7524;BME280;3803;51.666;7.630;2023-05-25T01:10:09;101918.44;;;7.68;84.71
7524;BME280;3803;51.666;7.630;2023-05-25T01:10:31;101911.34;;;7.66;84.95
7524;BME280;3803;51.666;7.630;2023-05-25T01:10:53;101920.94;;;7.67;84.77
7524;BME280;3803;51.666;7.630;2023-05-25T01:11:19;101901.34;;;7.57;84.49
7524;BME280;3803;51.666;7.630;2023-05-25T01:11:44;101925.25;;;7.66;84.52
7524;BME280;3803;51.666;7.630;2023-05-25T01:12:08;101904.75;;;7.56;84.17
7524;BME280;3803;51.666;7.630;2023-05-25T01:12:34;101912.56;;;7.56;84.15
7524;BME280;3803;51.666;7.630;2023-05-25T01:12:56;101906.34;;;7.54;84.10
7524;BME280;3803;51.666;7.630;2023-05-25T01:13:19;101925.81;;;7.61;84.40
7524;BME280;3803;51.666;7.630;2023-05-25T01:13:41;101907.97;;;7.52;85.05
7524;BME280;3803;51.666;7.630;2023-05-25T01:14:02;101922.28;;;7.60;84.69
7524;BME280;3803;51.666;7.630;2023-05-25T01:14:23;101908.56;;;7.48;84.89
7524;BME280;3803;51.666;7.630;2023-05-25T01:14:45;101912.19;;;7.50;84.47
7524;BME280;3803;51.666;7.630;2023-05-25T01:15:08;101905.97;;;7.48;84.43
7524;BME280;3803;51.666;7.630;2023-05-25T01:15:29;101932.69;;;7.60;84.87
7524;BME280;3803;51.666;7.630;2023-05-25T01:15:51;101923.53;;;7.52;84.18
7524;BME280;3803;51.666;7.630;2023-05-25T01:16:13;101930.72;;;7.56;84.79
7524;BME280;3803;51.666;7.630;2023-05-25T01:16:36;101909.38;;;7.47;84.71
7524;BME280;3803;51.666;7.630;2023-05-25T01:16:58;101902.22;;;7.43;84.41
7524;BME280;3803;51.666;7.630;2023-05-25T01:17:19;101913.59;;;7.45;84.92
7524;BME280;3803;51.666;7.630;2023-05-25T01:17:41;101924.25;;;7.49;84.36
7524;BME280;3803;51.666;7.630;2023-05-25T01:18:04;101919.78;;;7.47;84.37
7524;BME280;3803;51.666;7.630;2023-05-25T01:18:25;101917.19;;;7.47;84.73
7524;BME280;3803;51.666;7.630;2023-05-25T01:18:46;101915.31;;;7.44;84.46
7524;BME280;3803;51.666;7.630;2023-05-25T01:19:07;101928.56;;;7.49;84.61
7524;BME280;3803;51.666;7.630;2023-05-25T01:19:29;101916.09;;;7.43;84.84
7524;BME280;3803;51.666;7.630;2023-05-25T01:19:55;101922.91;;;7.41;84.34
7524;BME280;3803;51.666;7.630;2023-05-25T01:20:18;101922.09;;;7.42;84.85
7524;BME280;3803;51.666;7.630;2023-05-25T01:21:04;101926.03;;;7.50;84.95
7524;BME280;3803;51.666;7.630;2023-05-25T01:21:34;101932.06;;;7.49;84.37
7524;BME280;3803;51.666;7.630;2023-05-25T01:22:29;101911.44;;;7.37;84.57
7524;BME280;3803;51.666;7.630;2023-05-25T01:23:09;101914.25;;;7.40;84.82
7524;BME280;3803;51.666;7.630;2023-05-25T01:23:33;101921.13;;;7.40;84.74
7524;BME280;3803;51.666;7.630;2023-05-25T01:24:11;101934.75;;;7.51;84.71
7524;BME280;3803;51.666;7.630;2023-05-25T01:24:39;101920.41;;;7.43;84.45
7524;BME280;3803;51.666;7.630;2023-05-25T01:25:26;101919.34;;;7.39;84.57
7524;BME280;3803;51.666;7.630;2023-05-25T01:25:50;101944.16;;;7.49;84.59
7524;BME280;3803;51.666;7.630;2023-05-25T01:26:14;101914.03;;;7.37;84.77
7524;BME280;3803;51.666;7.630;2023-05-25T01:26:51;101914.84;;;7.36;84.92
7524;BME280;3803;51.666;7.630;2023-05-25T01:27:22;101915.00;;;7.39;84.64
7524;BME280;3803;51.666;7.630;2023-05-25T01:27:47;101913.16;;;7.37;84.73
7524;BME280;3803;51.666;7.630;2023-05-25T01:28:16;101918.41;;;7.38;84.95
7524;BME280;3803;51.666;7.630;2023-05-25T01:28:40;101914.25;;;7.40;84.95
7524;BME280;3803;51.666;7.630;2023-05-25T01:29:02;101925.59;;;7.43;84.96
7524;BME280;3803;51.666;7.630;2023-05-25T01:29:25;101920.22;;;7.39;85.32
7524;BME280;3803;51.666;7.630;2023-05-25T01:29:47;101930.16;;;7.47;85.15
7524;BME280;3803;51.666;7.630;2023-05-25T01:30:13;101938.97;;;7.49;84.88
7524;BME280;3803;51.666;7.630;2023-05-25T01:30:35;101920.31;;;7.41;84.58
7524;BME280;3803;51.666;7.630;2023-05-25T01:30:57;101913.50;;;7.43;85.20
7524;BME280;3803;51.666;7.630;2023-05-25T01:31:21;101913.44;;;7.42;84.62
7524;BME280;3803;51.666;7.630;2023-05-25T01:31:44;101923.28;;;7.47;85.09
7524;BME280;3803;51.666;7.630;2023-05-25T01:32:07;101916.03;;;7.42;84.84
7524;BME280;3803;51.666;7.630;2023-05-25T01:32:29;101917.81;;;7.43;84.92
7524;BME280;3803;51.666;7.630;2023-05-25T01:32:52;101910.84;;;7.42;85.14
7524;BME280;3803;51.666;7.630;2023-05-25T01:33:19;101928.66;;;7.50;84.79
7524;BME280;3803;51.666;7.630;2023-05-25T01:33:42;101935.56;;;7.50;84.63
7524;BME280;3803;51.666;7.630;2023-05-25T01:34:04;101916.09;;;7.43;84.55
7524;BME280;3803;51.666;7.630;2023-05-25T01:34:26;101904.72;;;7.41;84.92
7524;BME280;3803;51.666;7.630;2023-05-25T01:34:49;101911.72;;;7.42;84.32
7524;BME280;3803;51.666;7.630;2023-05-25T01:35:10;101921.56;;;7.48;85.08
7524;BME280;3803;51.666;7.630;2023-05-25T01:35:32;101914.25;;;7.40;84.39
7524;BME280;3803;51.666;7.630;2023-05-25T01:35:53;101926.16;;;7.52;84.92
7524;BME280;3803;51.666;7.630;2023-05-25T01:36:14;101911.72;;;7.42;84.85
7524;BME280;3803;51.666;7.630;2023-05-25T01:36:35;101922.31;;;7.45;84.80
7524;BME280;3803;51.666;7.630;2023-05-25T01:36:59;101927.66;;;7.48;85.07
7524;BME280;3803;51.666;7.630;2023-05-25T01:37:20;101916.19;;;7.45;84.91
7524;BME280;3803;51.666;7.630;2023-05-25T01:37:45;101911.91;;;7.45;85.04
7524;BME280;3803;51.666;7.630;2023-05-25T01:38:06;101919.88;;;7.48;84.60
7524;BME280;3803;51.666;7.630;2023-05-25T01:38:29;101916.38;;;7.48;84.91
7524;BME280;3803;51.666;7.630;2023-05-25T01:38:50;101919.97;;;7.50;84.61
7524;BME280;3803;51.666;7.630;2023-05-25T01:39:11;101926.03;;;7.50;84.76
7524;BME280;3803;51.666;7.630;2023-05-25T01:39:32;101928.75;;;7.52;84.87
7524;BME280;3803;51.666;7.630;2023-05-25T01:39:54;101919.97;;;7.50;84.72
7524;BME280;3803;51.666;7.630;2023-05-25T01:40:15;101917.97;;;7.46;84.70
7524;BME280;3803;51.666;7.630;2023-05-25T01:40:36;101916.19;;;7.45;84.94
7524;BME280;3803;51.666;7.630;2023-05-25T01:40:58;101914.03;;;7.37;84.78
7524;BME280;3803;51.666;7.630;2023-05-25T01:41:20;101925.78;;;7.46;84.70
7524;BME280;3803;51.666;7.630;2023-05-25T01:41:41;101912.25;;;7.36;84.51
7524;BME280;3803;51.666;7.630;2023-05-25T01:42:02;101914.03;;;7.37;84.63
7524;BME280;3803;51.666;7.630;2023-05-25T01:42:23;101916.34;;;7.33;84.89
7524;BME280;3803;51.666;7.630;2023-05-25T01:42:43;101938.59;;;7.43;84.55
7524;BME280;3803;51.666;7.630;2023-05-25T01:43:04;101922.53;;;7.35;84.51
7524;BME280;3803;51.666;7.630;2023-05-25T01:43:27;101930.44;;;7.36;84.50
7524;BME280;3803;51.666;7.630;2023-05-25T01:43:48;101933.03;;;7.36;84.79
7524;BME280;3803;51.666;7.630;2023-05-25T01:44:09;101919.75;;;7.32;84.90
7524;BME280;3803;51.666;7.630;2023-05-25T01:44:29;101935.78;;;7.39;84.69
7524;BME280;3803;51.666;7.630;2023-05-25T01:44:50;101923.34;;;7.34;84.57
7524;BME280;3803;51.666;7.630;2023-05-25T01:45:12;101921.28;;;7.28;84.41
7524;BME280;3803;51.666;7.630;2023-05-25T01:45:35;101943.59;;;7.39;84.54
7524;BME280;3803;51.666;7.630;2023-05-25T01:46:01;101927.44;;;7.30;84.49
7524;BME280;3803;51.666;7.630;2023-05-25T01:46:46;101928.47;;;7.32;84.30
7524;BME280;3803;51.666;7.630;2023-05-25T01:47:22;101943.59;;;7.39;84.40
7524;BME280;3803;51.666;7.630;2023-05-25T01:49:13;101944.41;;;7.38;84.64
7524;BME280;3803;51.666;7.630;2023-05-25T01:49:38;101947.53;;;7.48;84.31
7524;BME280;3803;51.666;7.630;2023-05-25T01:51:00;101944.00;;;7.61;84.15
7524;BME280;3803;51.666;7.630;2023-05-25T01:51:33;101945.84;;;7.63;83.81
7524;BME280;3803;51.666;7.630;2023-05-25T01:52:17;101938.25;;;7.66;83.87
7524;BME280;3803;51.666;7.630;2023-05-25T01:52:44;101922.13;;;7.57;83.44
7524;BME280;3803;51.666;7.630;2023-05-25T01:53:15;101932.84;;;7.63;83.37
7524;BME280;3803;51.666;7.630;2023-05-25T01:53:49;101930.19;;;7.62;83.70
7524;BME280;3803;51.666;7.630;2023-05-25T01:54:17;101923.81;;;7.57;84.02
7524;BME280;3803;51.666;7.630;2023-05-25T01:54:44;101919.25;;;7.52;83.75
7524;BME280;3803;51.666;7.630;2023-05-25T01:55:14;101931.06;;;7.62;83.34
7524;BME280;3803;51.666;7.630;2023-05-25T01:55:45;101914.06;;;7.52;83.41
7524;BME280;3803;51.666;7.630;2023-05-25T01:56:08;101924.72;;;7.57;83.77
7524;BME280;3803;51.666;7.630;2023-05-25T01:56:31;101932.84;;;7.63;83.27
7524;BME280;3803;51.666;7.630;2023-05-25T01:56:55;101931.88;;;7.61;83.39
7524;BME280;3803;51.666;7.630;2023-05-25T01:57:19;101938.06;;;7.63;83.22
7524;BME280;3803;51.666;7.630;2023-05-25T01:57:42;101940.84;;;7.66;83.94
7524;BME280;3803;51.666;7.630;2023-05-25T01:58:06;101920.84;;;7.50;83.36
7524;BME280;3803;51.666;7.630;2023-05-25T01:58:32;101921.13;;;7.55;83.32
7524;BME280;3803;51.666;7.630;2023-05-25T01:58:55;101926.41;;;7.57;83.33
7524;BME280;3803;51.666;7.630;2023-05-25T01:59:19;101932.53;;;7.57;83.30
7524;BME280;3803;51.666;7.630;2023-05-25T01:59:46;101930.91;;;7.59;83.48
7524;BME280;3803;51.666;7.630;2023-05-25T02:00:09;101917.44;;;7.51;83.55
7524;BME280;3803;51.666;7.630;2023-05-25T02:00:35;101920.69;;;7.47;83.23
7524;BME280;3803;51.666;7.630;2023-05-25T02:00:58;101935.94;;;7.56;83.14
7524;BME280;3803;51.666;7.630;2023-05-25T02:01:18;101926.03;;;7.50;83.20
7524;BME280;3803;51.666;7.630;2023-05-25T02:01:41;101933.94;;;7.52;83.19
7524;BME280;3803;51.666;7.630;2023-05-25T02:02:02;101948.00;;;7.56;83.18
7524;BME280;3803;51.666;7.630;2023-05-25T02:02:23;101930.16;;;7.47;83.22
7524;BME280;3803;51.666;7.630;2023-05-25T02:02:45;101936.44;;;7.50;83.24
7524;BME280;3803;51.666;7.630;2023-05-25T02:03:07;101929.34;;;7.48;83.58
7524;BME280;3803;51.666;7.630;2023-05-25T02:03:29;101930.97;;;7.46;83.21
7524;BME280;3803;51.666;7.630;2023-05-25T02:03:51;101936.44;;;7.50;83.52
7524;BME280;3803;51.666;7.630;2023-05-25T02:04:13;101924.78;;;7.44;83.15
7524;BME280;3803;51.666;7.630;2023-05-25T02:04:34;101927.41;;;7.44;82.77
7524;BME280;3803;51.666;7.630;2023-05-25T02:04:55;101926.41;;;7.42;83.50
7524;BME280;3803;51.666;7.630;2023-05-25T02:05:18;101953.09;;;7.54;83.46
7524;BME280;3803;51.666;7.630;2023-05-25T02:05:40;101947.72;;;7.51;83.34
7524;BME280;3803;51.666;7.630;2023-05-25T02:06:01;101942.16;;;7.45;83.16
7524;BME280;3803;51.666;7.630;2023-05-25T02:06:22;101940.38;;;7.44;83.05
7524;BME280;3803;51.666;7.630;2023-05-25T02:06:47;101945.94;;;7.50;83.03
7524;BME280;3803;51.666;7.630;2023-05-25T02:07:08;101937.69;;;7.42;83.24
7524;BME280;3803;51.666;7.630;2023-05-25T02:07:29;101928.81;;;7.38;83.16
7524;BME280;3803;51.666;7.630;2023-05-25T02:07:49;101926.41;;;7.42;83.15
7524;BME280;3803;51.666;7.630;2023-05-25T02:08:11;101938.69;;;7.44;83.37